Cheshire, MA (01225)

9:39 PM EDT on August 30, 2015 (GMT -0400)
Daniels Terrace | | Change Station
CLOSE
Current Station
Personal Weather Station
Location: Cheshire, MA
Elevation: 1099 ft
Nearby Weather Stations

Elev 1099 ft 42.56 °N, 73.17 °W | Updated 5 minutes ago

Clear
Clear
65.1 °F
Feels Like 65.1 °F
N
0.0
Wind Variable Wind from NNE

Today
High -- | Low -- °F
--% Chance of Precip.
Yesterday
High -- | Low -- °F
Precip. -- in
6:15 AM 7:30 PM
Full, 97% visible
Pressure 30.05 in
Visibility 9.0 miles
Clouds Scattered Clouds 7500 ft
Dew Point 60 °F
Humidity 82%
Rainfall 0.00 in
Snow Depth Not available.
UV 0 out of 12
Pollen 9.20 out of 12
Air Quality Not available.
Flu Activity Not available.
METAR KAQW 310052Z AUTO 00000KT 9SM SCT075 19/18 A3005 RMK AO2 SLP174 T01940178
Pressure 30.05 in
Visibility 9.0 miles
Clouds Scattered Clouds 7500 ft
Dew Point 60 °F
Humidity 82%
Rainfall 0.00 in
Snow Depth Not available.
UV 0 out of 12
Pollen 9.20 out of 12
Air Quality Not available.
Flu Activity Not available.
METAR KAQW 310052Z AUTO 00000KT 9SM SCT075 19/18 A3005 RMK AO2 SLP174 T01940178

10-Day Weather Forecast

×

Almanac

Astronomy

Aug. 30, 2015 Rise Set
Actual Time
Civil Twilight
Nautical Twilight
Astronomical Twilight
Moon
Length of Visible Light
Length of Day
Tomorrow will be .
, % of the Moon is Illuminated

Today's Extremes

State Highs State Lows

Community

WunderPhotos

Upload Photos

1,851,145 photos uploaded!

WunderBlogs® & News

Nearby

Air Quality

  Air Quality AQ Index Pollutant
Not available.

Snow Depth

Station Depth Elevation

Earthquake Activity

City Distance Mag. Time & Date
Minimum magnitude displayed is 2.5.

Coastal Water Temperatures

Place Temperature

Stations

Nearby Weather Stations

Station Location Temp. Windchill Dew Point Humidity Wind Precip. Elev Updated Type